createdAt,value
2022-11-29T00:02:19.449Z,3.40
2022-11-29T00:08:27.605Z,3.50
2022-11-29T00:18:31.300Z,3.50
2022-11-29T00:23:18.588Z,3.50
2022-11-29T00:28:10.437Z,3.50
2022-11-29T00:32:54.423Z,3.50
2022-11-29T00:38:04.516Z,3.60
2022-11-29T00:42:48.853Z,3.70
2022-11-29T00:47:37.539Z,3.80
2022-11-29T00:52:23.534Z,3.90
2022-11-29T00:57:32.755Z,4.00
2022-11-29T01:02:16.969Z,4.00
2022-11-29T01:07:37.338Z,3.90
2022-11-29T01:12:28.686Z,3.90
2022-11-29T01:17:12.482Z,4.00
2022-11-29T01:21:59.511Z,4.00
2022-11-29T01:26:53.075Z,4.10
2022-11-29T01:32:40.962Z,4.00
2022-11-29T01:37:30.046Z,4.00
2022-11-29T01:42:20.764Z,4.00
2022-11-29T02:17:43.513Z,3.90
2022-11-29T02:22:44.957Z,3.80
2022-11-29T02:28:06.872Z,3.80
2022-11-29T02:33:48.394Z,3.80
2022-11-29T02:39:09.347Z,3.80
2022-11-29T02:50:36.975Z,3.80
2022-11-29T02:56:08.592Z,3.70
2022-11-29T03:01:41.063Z,3.70
2022-11-29T03:07:35.861Z,3.70
2022-11-29T03:19:03.130Z,3.70
2022-11-29T03:24:43.899Z,3.80
2022-11-29T03:37:14.440Z,3.80
2022-11-29T03:49:17.517Z,3.70
2022-11-29T04:20:06.486Z,3.80
2022-11-29T04:31:05.264Z,3.80
2022-11-29T04:43:08.130Z,3.80
2022-11-29T04:54:33.073Z,3.90
2022-11-29T05:05:28.986Z,3.60
2022-11-29T05:10:59.185Z,3.70
2022-11-29T05:16:21.365Z,3.70
2022-11-29T05:21:43.565Z,3.70
2022-11-29T09:15:21.241Z,5.10
2022-11-29T09:20:19.657Z,5.10
2022-11-29T09:25:32.838Z,5.30
2022-11-29T09:43:40.180Z,5.60
2022-11-29T10:02:48.293Z,5.60
2022-11-29T10:08:07.183Z,5.50
2022-11-29T10:18:29.883Z,5.60
2022-11-29T10:36:40.578Z,5.60
2022-11-29T10:41:29.395Z,5.70
2022-11-29T11:16:31.580Z,6.10
2022-11-29T11:22:36.336Z,6.10
2022-11-29T11:55:04.916Z,5.90
2022-11-29T12:05:25.641Z,5.90
2022-11-29T12:10:31.812Z,5.80
2022-11-29T12:15:57.702Z,5.80
2022-11-29T12:21:32.091Z,5.70
2022-11-29T12:32:42.406Z,5.80
2022-11-29T12:37:48.096Z,5.80
2022-11-29T12:43:36.455Z,5.70
2022-11-29T12:49:10.280Z,5.60
2022-11-29T12:54:35.127Z,5.60
2022-11-29T12:59:38.844Z,5.70
2022-11-29T13:04:38.729Z,5.60
2022-11-29T13:10:47.668Z,5.60
2022-11-29T13:16:06.015Z,5.60
2022-11-29T13:21:24.406Z,5.70
2022-11-29T13:26:16.370Z,5.60
2022-11-29T13:31:36.415Z,5.60
2022-11-29T13:54:36.336Z,5.40
2022-11-29T13:59:52.193Z,5.30
2022-11-29T14:06:03.354Z,5.30
2022-11-29T14:11:19.293Z,5.20
2022-11-29T14:16:39.657Z,5.20
2022-11-29T14:21:58.871Z,5.10
2022-11-29T14:32:54.332Z,5.00
2022-11-29T14:38:04.161Z,4.90
2022-11-29T14:43:17.913Z,4.90
2022-11-29T14:48:27.437Z,4.90
2022-11-29T14:53:31.678Z,4.90
2022-11-29T14:58:30.536Z,4.80
2022-11-29T15:03:34.621Z,4.70
2022-11-29T15:26:46.770Z,4.60
2022-11-29T15:43:17.823Z,4.60
2022-11-29T15:48:41.971Z,4.60
2022-11-29T15:54:11.808Z,4.60
2022-11-29T15:59:20.826Z,4.50
2022-11-29T16:04:28.450Z,4.40
2022-11-29T16:09:27.017Z,4.40
2022-11-29T16:14:45.398Z,4.40
2022-11-29T16:25:17.504Z,4.40
2022-11-29T16:31:02.880Z,4.30
2022-11-29T16:35:52.951Z,4.30
2022-11-29T16:46:51.462Z,4.30
2022-11-29T17:03:02.837Z,4.40
2022-11-29T17:07:52.755Z,4.50
2022-11-29T17:19:05.782Z,4.60
2022-11-29T17:29:47.285Z,4.60
2022-11-29T17:34:51.817Z,4.60
2022-11-29T17:39:48.228Z,4.70
2022-11-29T17:44:45.670Z,4.50
2022-11-29T17:49:43.601Z,4.50
2022-11-29T17:54:33.236Z,4.60
2022-11-29T17:59:22.371Z,4.50
2022-11-29T18:04:09.763Z,4.70
2022-11-29T18:09:12.016Z,4.50
2022-11-29T18:14:04.369Z,4.50
2022-11-29T18:19:07.281Z,4.60
2022-11-29T18:23:51.627Z,4.50
2022-11-29T18:28:41.621Z,4.40
2022-11-29T18:33:32.192Z,4.50
2022-11-29T18:38:17.621Z,4.40
2022-11-29T18:43:02.865Z,4.50
2022-11-29T18:53:10.314Z,4.50
2022-11-29T18:58:03.081Z,4.50
2022-11-29T19:02:47.202Z,4.50
2022-11-29T19:07:36.595Z,4.40
2022-11-29T19:12:27.500Z,4.40
2022-11-29T19:24:22.857Z,4.40
2022-11-29T19:29:59.950Z,4.40
2022-11-29T19:35:35.086Z,4.40
2022-11-29T19:40:41.607Z,4.50
2022-11-29T19:46:20.535Z,4.40
2022-11-29T19:57:46.465Z,4.30
2022-11-29T20:02:30.390Z,4.30
2022-11-29T20:07:36.627Z,4.40
2022-11-29T20:18:12.465Z,4.20
2022-11-29T20:23:05.066Z,4.30
2022-11-29T20:27:52.069Z,4.30
2022-11-29T20:32:38.902Z,4.30
2022-11-29T20:37:59.615Z,4.20
2022-11-29T20:43:17.848Z,4.20
2022-11-29T20:48:13.229Z,4.20
2022-11-29T20:53:13.728Z,4.20
2022-11-29T20:57:59.999Z,4.20
2022-11-29T21:02:47.145Z,4.10
2022-11-29T21:07:34.700Z,4.10
2022-11-29T21:18:13.617Z,4.00
2022-11-29T21:23:20.735Z,4.00
2022-11-29T21:28:13.163Z,3.70
2022-11-29T21:32:57.308Z,3.60
2022-11-29T21:37:45.707Z,3.40
2022-11-29T21:42:30.605Z,3.20
2022-11-29T21:47:23.401Z,3.20
2022-11-29T21:52:07.417Z,3.20
2022-11-29T21:56:55.735Z,3.20
2022-11-29T22:01:42.412Z,3.10
2022-11-29T22:06:32.411Z,3.00
2022-11-29T22:11:33.741Z,3.10
2022-11-29T22:16:28.165Z,3.00
2022-11-29T22:21:11.780Z,3.00
2022-11-29T22:26:04.440Z,3.00
2022-11-29T22:30:48.010Z,3.00
2022-11-29T22:35:35.969Z,3.00
2022-11-29T22:40:22.768Z,3.00
2022-11-29T22:45:12.625Z,3.20
2022-11-29T22:49:59.228Z,3.00
2022-11-29T22:54:48.384Z,3.00
2022-11-29T22:59:35.098Z,3.00
2022-11-29T23:04:22.035Z,3.00
2022-11-29T23:09:16.412Z,3.10
2022-11-29T23:14:01.775Z,3.10
2022-11-29T23:18:49.163Z,3.00
2022-11-29T23:23:35.179Z,3.00
2022-11-29T23:28:21.694Z,3.00
2022-11-29T23:33:14.228Z,3.00
2022-11-29T23:38:00.843Z,3.00
2022-11-29T23:42:47.367Z,3.00
2022-11-29T23:47:33.984Z,3.00
2022-11-29T23:52:26.061Z,3.00
2022-11-29T23:57:12.771Z,3.00
